Time;durP1;ratioP1;P1;durP2;ratioP2;P2;SDS_P1;SDS_P2;PMS_P1;PMS_P2;Temp;Humidity;BMP_temperature;BMP_pressure;BME280_temperature;BME280_humidity;BME280_pressure;Samples;Min_cycle;Max_cycle;Signal;HPM_P1;HPM_P2
2024/03/18 00:00:17;;;;;;;12.48;9.13;;;11.90;99.90;;;;;;5054763;28;20083;-35
2024/03/18 00:02:45;;;;;;;13.75;9.38;;;11.90;99.90;;;;;;5053395;28;20036;-36
2024/03/18 00:05:12;;;;;;;13.75;8.70;;;11.90;99.90;;;;;;5054138;28;20064;-35
2024/03/18 00:07:39;;;;;;;13.20;8.37;;;11.90;99.90;;;;;;5054311;28;20446;-35
2024/03/18 00:10:09;;;;;;;13.95;8.63;;;11.80;99.90;;;;;;5054502;28;20041;-35
2024/03/18 00:12:41;;;;;;;13.20;8.88;;;11.80;99.90;;;;;;5053916;28;20494;-37
2024/03/18 00:15:09;;;;;;;16.15;8.60;;;11.80;99.90;;;;;;5052815;28;20058;-35
2024/03/18 00:17:35;;;;;;;;;;;11.70;99.90;;;;;;5053303;28;20493;-35
2024/03/18 00:20:08;;;;;;;23.33;7.72;;;11.70;99.90;;;;;;5054196;28;19916;-35
2024/03/18 00:22:36;;;;;;;13.05;8.10;;;11.60;99.90;;;;;;5053089;28;20102;-35
2024/03/18 00:25:02;;;;;;;12.38;8.02;;;11.70;99.90;;;;;;5054204;28;20104;-35
2024/03/18 00:27:29;;;;;;;12.98;8.20;;;11.70;99.90;;;;;;5054269;28;20037;-35
2024/03/18 00:29:55;;;;;;;13.35;8.38;;;11.70;99.90;;;;;;5054282;28;20032;-35
2024/03/18 00:32:20;;;;;;;15.68;9.05;;;11.70;99.90;;;;;;5054005;28;20136;-35
2024/03/18 00:34:46;;;;;;;15.82;8.40;;;11.80;99.90;;;;;;5053675;28;20144;-35
2024/03/18 00:37:11;;;;;;;12.85;8.27;;;11.80;99.90;;;;;;5054059;28;20025;-35
2024/03/18 00:39:37;;;;;;;12.48;7.95;;;11.80;99.90;;;;;;5054002;28;20032;-35
2024/03/18 00:42:03;;;;;;;14.15;8.30;;;11.80;99.90;;;;;;5053948;28;20529;-37
2024/03/18 00:44:29;;;;;;;13.75;7.90;;;11.80;99.90;;;;;;5053875;28;20021;-35
2024/03/18 00:46:55;;;;;;;19.77;9.63;;;11.70;99.90;;;;;;5054179;28;20104;-36
2024/03/18 00:49:21;;;;;;;18.30;8.20;;;11.70;99.90;;;;;;5049772;28;20030;-35
2024/03/18 00:51:47;;;;;;;14.88;8.73;;;11.70;99.90;;;;;;5053373;28;20104;-36
2024/03/18 00:54:14;;;;;;;13.73;8.27;;;11.60;99.90;;;;;;5054066;28;20040;-34
2024/03/18 00:56:39;;;;;;;17.33;9.70;;;11.60;99.90;;;;;;5053414;28;20039;-35
2024/03/18 00:59:06;;;;;;;16.30;9.50;;;11.50;99.90;;;;;;5053665;28;20025;-34
2024/03/18 01:01:33;;;;;;;18.85;9.35;;;11.60;99.90;;;;;;5053653;28;20036;-34
2024/03/18 01:03:59;;;;;;;18.77;8.60;;;11.60;99.90;;;;;;5053392;28;20028;-35
2024/03/18 01:06:25;;;;;;;14.77;9.00;;;11.50;99.90;;;;;;5053624;28;20066;-34
2024/03/18 01:08:54;;;;;;;22.35;9.57;;;11.40;99.90;;;;;;5053067;28;20072;-34
2024/03/18 01:11:20;;;;;;;17.95;9.43;;;11.40;99.90;;;;;;5053196;28;20083;-34
2024/03/18 01:13:47;;;;;;;16.65;10.05;;;11.30;99.90;;;;;;5053226;28;20043;-34
2024/03/18 01:16:20;;;;;;;17.67;10.02;;;11.30;99.90;;;;;;5053222;28;20528;-35
2024/03/18 01:18:46;;;;;;;21.08;10.63;;;11.30;99.90;;;;;;5033077;28;20037;-34
2024/03/18 01:21:13;;;;;;;25.45;10.38;;;11.30;99.90;;;;;;5033093;28;20029;-35
2024/03/18 01:23:39;;;;;;;18.02;10.50;;;11.30;99.90;;;;;;5033087;28;20017;-35
2024/03/18 01:26:05;;;;;;;25.40;9.93;;;11.40;99.90;;;;;;5049500;28;20029;-35
2024/03/18 01:28:31;;;;;;;20.30;10.85;;;11.30;99.90;;;;;;5053118;28;20477;-34
2024/03/18 01:30:57;;;;;;;18.08;10.23;;;11.30;99.90;;;;;;5052947;28;20040;-34
2024/03/18 01:33:23;;;;;;;18.35;10.60;;;11.30;99.90;;;;;;5051595;28;20115;-35
2024/03/18 01:35:49;;;;;;;21.73;11.05;;;11.40;99.90;;;;;;5051537;28;20478;-40
2024/03/18 01:38:15;;;;;;;20.10;11.57;;;11.40;99.90;;;;;;5053097;28;20028;-34
2024/03/18 01:40:43;;;;;;;22.17;12.20;;;11.30;99.90;;;;;;5052719;28;20029;-35
2024/03/18 01:43:09;;;;;;;24.63;11.65;;;11.30;99.90;;;;;;5052580;28;20509;-36
2024/03/18 01:45:38;;;;;;;19.02;9.93;;;11.30;99.90;;;;;;5052546;28;20025;-35
2024/03/18 01:48:04;;;;;;;28.05;11.77;;;11.30;99.90;;;;;;5033945;28;20030;-34
2024/03/18 01:50:30;;;;;;;19.15;11.32;;;11.30;99.90;;;;;;5032832;28;20478;-34
2024/03/18 01:52:56;;;;;;;23.23;12.07;;;11.30;99.90;;;;;;5032693;28;20044;-35
2024/03/18 01:55:22;;;;;;;25.98;11.68;;;11.20;99.90;;;;;;5032793;28;20026;-34
2024/03/18 01:57:48;;;;;;;21.27;11.52;;;11.20;99.90;;;;;;5032637;28;20087;-35
2024/03/18 02:00:31;;;;;;;23.27;10.93;;;11.20;99.90;;;;;;5049789;28;20024;-35
2024/03/18 02:02:57;;;;;;;22.13;11.75;;;11.20;99.90;;;;;;5052314;28;20021;-34
2024/03/18 02:05:22;;;;;;;20.33;10.30;;;11.20;99.90;;;;;;5051784;28;20029;-35
2024/03/18 02:07:48;;;;;;;21.40;11.88;;;11.30;99.90;;;;;;5052347;28;20044;-36
2024/03/18 02:10:14;;;;;;;32.80;13.60;;;11.30;99.90;;;;;;5052531;28;20381;-36
2024/03/18 02:12:40;;;;;;;27.52;12.85;;;11.30;99.90;;;;;;5052082;28;20124;-46
2024/03/18 02:15:06;;;;;;;21.98;11.77;;;11.40;99.90;;;;;;5052249;28;20179;-48
2024/03/18 02:17:32;;;;;;;23.27;11.05;;;11.40;99.90;;;;;;5051929;28;20029;-49
2024/03/18 02:19:58;;;;;;;25.05;12.48;;;11.50;99.90;;;;;;5052180;28;20108;-50
2024/03/18 02:22:23;;;;;;;27.65;13.52;;;11.50;99.90;;;;;;5052171;28;20128;-50
2024/03/18 02:24:49;;;;;;;26.15;13.48;;;11.50;99.90;;;;;;5052123;28;20040;-49
2024/03/18 02:27:14;;;;;;;25.95;12.60;;;11.50;99.90;;;;;;5052190;28;20397;-48
2024/03/18 02:29:40;;;;;;;30.08;13.85;;;11.60;99.90;;;;;;5051983;28;20060;-47
2024/03/18 02:32:07;;;;;;;26.05;12.25;;;11.60;99.90;;;;;;5052147;28;20087;-35
2024/03/18 02:34:33;;;;;;;29.42;13.98;;;11.60;99.90;;;;;;5051772;28;20087;-36
2024/03/18 02:36:59;;;;;;;24.88;12.98;;;11.60;99.90;;;;;;5052041;28;20485;-36
2024/03/18 02:39:26;;;;;;;31.83;14.65;;;11.70;99.90;;;;;;5052033;28;20029;-35
2024/03/18 02:41:53;;;;;;;27.65;12.88;;;11.70;99.90;;;;;;5051952;28;20051;-36
2024/03/18 02:44:18;;;;;;;30.33;13.10;;;11.70;99.90;;;;;;5035784;28;20458;-37
2024/03/18 02:46:44;;;;;;;32.92;14.77;;;11.70;99.90;;;;;;5032018;28;20030;-34
2024/03/18 02:49:10;;;;;;;34.13;14.57;;;11.70;99.90;;;;;;5031121;28;20421;-46
2024/03/18 02:51:36;;;;;;;34.17;15.23;;;11.70;99.90;;;;;;5051952;28;20427;-48
2024/03/18 02:54:02;;;;;;;36.45;15.05;;;11.70;99.90;;;;;;5050585;28;20029;-49
2024/03/18 02:56:28;;;;;;;36.70;16.08;;;11.70;99.90;;;;;;5051797;28;20068;-46
2024/03/18 02:58:54;;;;;;;31.63;13.73;;;11.70;99.90;;;;;;5051855;28;20083;-48
2024/03/18 03:01:21;;;;;;;31.95;14.48;;;11.70;99.90;;;;;;5052137;28;20092;-33
2024/03/18 03:03:48;;;;;;;30.88;14.02;;;11.70;99.90;;;;;;5052020;28;20461;-36
2024/03/18 03:06:13;;;;;;;32.83;14.32;;;11.70;99.90;;;;;;5051611;28;20029;-47
2024/03/18 03:08:39;;;;;;;32.65;14.35;;;11.70;99.90;;;;;;5051765;28;20063;-47
2024/03/18 03:11:06;;;;;;;30.80;14.23;;;11.80;99.90;;;;;;5051729;28;20049;-47
2024/03/18 03:13:32;;;;;;;37.20;14.27;;;11.80;99.90;;;;;;5051695;28;20401;-45
2024/03/18 03:15:57;;;;;;;31.70;14.60;;;11.80;99.90;;;;;;5051648;28;20033;-48
2024/03/18 03:18:24;;;;;;;32.63;15.15;;;11.80;99.90;;;;;;5051772;28;20028;-48
2024/03/18 03:20:52;;;;;;;29.70;13.68;;;11.70;99.90;;;;;;5050461;28;20390;-50
2024/03/18 03:23:17;;;;;;;37.17;14.75;;;11.70;99.90;;;;;;5051560;28;20477;-50
2024/03/18 03:25:43;;;;;;;30.95;14.77;;;11.70;99.90;;;;;;5051568;28;20063;-53
2024/03/18 03:28:09;;;;;;;29.88;13.73;;;11.70;99.90;;;;;;5051957;28;20448;-50
2024/03/18 03:30:35;;;;;;;29.60;14.50;;;11.80;99.90;;;;;;5051564;28;20032;-47
2024/03/18 03:33:04;;;;;;;38.58;15.02;;;11.80;99.90;;;;;;5051740;28;20037;-49
2024/03/18 03:35:30;;;;;;;39.83;15.27;;;11.80;99.90;;;;;;5050199;28;20029;-47
2024/03/18 03:37:57;;;;;;;33.92;15.02;;;11.80;99.90;;;;;;5051846;28;20579;-48
2024/03/18 03:40:22;;;;;;;32.85;13.35;;;11.80;99.90;;;;;;5050546;28;20040;-48
2024/03/18 03:42:48;;;;;;;35.78;13.95;;;11.80;99.90;;;;;;5055050;28;20025;-49
2024/03/18 03:45:14;;;;;;;30.80;12.75;;;11.80;99.90;;;;;;5055013;28;20029;-46
2024/03/18 03:47:39;;;;;;;37.10;15.50;;;11.80;99.90;;;;;;5055276;28;20473;-51
2024/03/18 03:50:10;;;;;;;30.33;13.75;;;11.80;99.90;;;;;;5053860;28;20034;-49
2024/03/18 03:52:36;;;;;;;38.03;13.68;;;11.80;99.90;;;;;;5054862;28;20035;-51
2024/03/18 03:55:01;;;;;;;35.50;13.68;;;11.80;99.90;;;;;;5054821;28;20119;-51
2024/03/18 03:57:27;;;;;;;33.80;13.73;;;11.80;99.90;;;;;;5054896;28;20033;-47
2024/03/18 03:59:53;;;;;;;32.88;13.70;;;11.80;99.90;;;;;;5054683;28;20029;-34
2024/03/18 04:02:18;;;;;;;32.05;13.63;;;11.80;99.90;;;;;;5054933;28;20489;-35
2024/03/18 04:04:44;;;;;;;37.80;15.13;;;11.80;99.90;;;;;;5054819;28;20033;-35
2024/03/18 04:07:10;;;;;;;42.38;13.98;;;11.80;99.90;;;;;;5054651;28;20092;-35
2024/03/18 04:09:35;;;;;;;34.03;13.23;;;11.70;99.90;;;;;;5054451;28;20033;-35
2024/03/18 04:12:01;;;;;;;33.30;13.93;;;11.70;99.90;;;;;;5054384;28;20528;-35
2024/03/18 04:14:27;;;;;;;33.42;13.32;;;11.70;99.90;;;;;;5054245;28;20056;-35
2024/03/18 04:16:52;;;;;;;27.90;13.35;;;11.70;99.90;;;;;;5054207;28;20114;-35
2024/03/18 04:19:19;;;;;;;38.03;12.80;;;11.70;99.90;;;;;;5054617;28;20470;-35
2024/03/18 04:21:44;;;;;;;30.17;12.88;;;11.70;99.90;;;;;;5054237;28;20029;-36
2024/03/18 04:24:10;;;;;;;36.03;13.57;;;11.70;99.90;;;;;;5054281;28;20124;-35
2024/03/18 04:26:36;;;;;;;28.58;12.50;;;11.70;99.90;;;;;;5054150;28;20032;-35
2024/03/18 04:29:03;;;;;;;27.70;12.88;;;11.60;99.90;;;;;;5054214;28;20055;-36
2024/03/18 04:31:29;;;;;;;32.10;13.37;;;11.60;99.90;;;;;;5054088;28;20029;-35
2024/03/18 04:33:55;;;;;;;32.08;13.32;;;11.70;99.90;;;;;;5052702;28;20492;-36
2024/03/18 04:36:21;;;;;;;32.00;14.85;;;11.70;99.90;;;;;;5054014;28;20086;-54
2024/03/18 04:38:46;;;;;;;32.65;13.55;;;11.70;99.90;;;;;;5054158;28;20389;-49
2024/03/18 04:41:13;;;;;;;32.15;13.23;;;11.70;99.90;;;;;;5054299;28;20033;-48
2024/03/18 04:43:39;;;;;;;34.30;14.40;;;11.70;99.90;;;;;;5053967;28;20580;-50
2024/03/18 04:46:05;;;;;;;29.23;13.68;;;11.70;99.90;;;;;;5053916;28;20061;-51
2024/03/18 04:48:31;;;;;;;36.05;13.35;;;11.80;99.90;;;;;;5053588;28;20485;-47
2024/03/18 04:50:57;;;;;;;38.17;14.20;;;11.80;99.90;;;;;;5053757;28;20082;-51
2024/03/18 04:53:23;;;;;;;34.72;13.80;;;11.80;99.90;;;;;;5053478;28;20037;-49
2024/03/18 04:55:48;;;;;;;32.92;14.02;;;11.80;99.90;;;;;;5053790;28;20366;-34
2024/03/18 04:58:14;;;;;;;30.95;13.57;;;11.80;99.90;;;;;;5053602;28;20029;-37
2024/03/18 05:00:39;;;;;;;31.30;13.52;;;11.80;99.90;;;;;;5053545;28;20072;-36
2024/03/18 05:03:05;;;;;;;28.70;14.38;;;11.80;99.90;;;;;;5053465;28;20492;-35
2024/03/18 05:05:31;;;;;;;25.98;13.25;;;11.80;99.90;;;;;;5037931;28;20559;-34
2024/03/18 05:07:57;;;;;;;35.53;14.48;;;11.80;99.90;;;;;;5053419;28;20037;-36
2024/03/18 05:10:26;;;;;;;32.00;12.98;;;11.90;99.90;;;;;;5053578;28;20025;-35
2024/03/18 05:12:52;;;;;;;25.40;12.30;;;11.80;99.90;;;;;;5053577;28;20033;-35
2024/03/18 05:15:18;;;;;;;26.25;11.95;;;11.80;99.90;;;;;;5053410;28;20462;-34
2024/03/18 05:17:45;;;;;;;32.47;13.93;;;11.90;99.90;;;;;;5053000;28;20051;-35
2024/03/18 05:20:11;;;;;;;27.83;11.90;;;11.80;99.90;;;;;;5053102;28;20028;-35
2024/03/18 05:22:37;;;;;;;31.60;11.82;;;11.80;99.90;;;;;;5053210;28;20473;-35
2024/03/18 05:25:06;;;;;;;27.98;12.77;;;11.80;99.90;;;;;;5053087;28;20028;-35
2024/03/18 05:27:32;;;;;;;25.30;12.32;;;11.80;99.90;;;;;;5052936;28;20051;-36
2024/03/18 05:29:59;;;;;;;31.48;11.65;;;11.80;99.90;;;;;;5053240;28;20063;-36
2024/03/18 05:32:24;;;;;;;26.60;12.68;;;11.80;99.90;;;;;;5053009;28;20040;-35
2024/03/18 05:34:50;;;;;;;27.52;12.73;;;11.80;99.90;;;;;;5052859;28;20363;-35
2024/03/18 05:37:17;;;;;;;30.08;11.98;;;11.80;99.90;;;;;;5044706;28;20025;-35
2024/03/18 05:39:42;;;;;;;33.25;12.15;;;11.80;99.90;;;;;;5037897;28;20024;-36
2024/03/18 05:42:08;;;;;;;26.13;11.75;;;11.80;99.90;;;;;;5053237;28;20032;-49
2024/03/18 05:44:34;;;;;;;22.08;11.02;;;11.80;99.90;;;;;;5052831;28;20025;-50
2024/03/18 05:47:00;;;;;;;28.25;11.77;;;11.80;99.90;;;;;;5053004;28;20048;-52
2024/03/18 05:49:28;;;;;;;27.60;12.40;;;11.80;99.90;;;;;;5052598;28;20068;-54
2024/03/18 05:51:55;;;;;;;24.88;11.02;;;11.80;99.90;;;;;;5052888;28;20496;-35
2024/03/18 05:54:20;;;;;;;24.80;12.20;;;11.80;99.90;;;;;;5052499;28;20036;-35
2024/03/18 05:56:47;;;;;;;30.85;12.02;;;11.70;99.90;;;;;;5052209;28;20017;-36
2024/03/18 05:59:13;;;;;;;24.20;11.82;;;11.70;99.90;;;;;;5053060;28;20457;-37
2024/03/18 06:01:40;;;;;;;30.98;12.68;;;11.70;99.90;;;;;;5052393;28;20432;-35
2024/03/18 06:04:07;;;;;;;31.45;11.10;;;11.70;99.90;;;;;;5050504;28;20017;-52
2024/03/18 06:06:33;;;;;;;25.85;12.13;;;11.70;99.90;;;;;;5052631;28;20021;-50
2024/03/18 06:08:59;;;;;;;34.60;11.48;;;11.70;99.90;;;;;;5051046;28;20123;-52
2024/03/18 06:11:28;;;;;;;25.08;11.57;;;11.80;99.90;;;;;;5050988;28;20075;-50
2024/03/18 06:13:54;;;;;;;22.25;10.90;;;11.80;99.90;;;;;;5050847;28;20115;-53
2024/03/18 06:16:20;;;;;;;30.13;11.52;;;11.80;99.90;;;;;;5033901;28;20486;-51
2024/03/18 06:18:47;;;;;;;24.05;12.32;;;11.80;99.90;;;;;;5050491;28;20496;-51
2024/03/18 06:21:19;;;;;;;26.27;11.93;;;11.80;99.90;;;;;;5052146;28;20013;-51
2024/03/18 06:23:55;;;;;;;19.73;10.43;;;11.80;99.90;;;;;;5052208;28;20070;-52
2024/03/18 06:26:21;;;;;;;29.67;11.50;;;11.80;99.90;;;;;;5052090;28;20048;-50
2024/03/18 06:28:47;;;;;;;24.08;11.35;;;11.80;99.90;;;;;;5052218;28;20405;-52
2024/03/18 06:31:14;;;;;;;23.40;10.68;;;11.80;99.90;;;;;;5051915;28;20025;-54
2024/03/18 06:33:40;;;;;;;23.98;11.48;;;11.80;99.90;;;;;;5052106;28;20108;-53
2024/03/18 06:36:10;;;;;;;21.90;9.95;;;11.80;99.90;;;;;;5052058;28;20025;-53
2024/03/18 06:38:36;;;;;;;26.10;11.13;;;11.90;99.90;;;;;;5052332;28;20036;-51
2024/03/18 06:41:02;;;;;;;27.83;11.38;;;11.80;99.90;;;;;;5034156;28;20386;-53
2024/03/18 06:43:28;;;;;;;28.80;11.18;;;11.80;99.90;;;;;;5051051;28;20095;-51
2024/03/18 06:45:53;;;;;;;32.55;10.60;;;11.80;99.90;;;;;;5051883;28;20436;-51
2024/03/18 06:48:19;;;;;;;22.92;9.90;;;11.80;99.90;;;;;;5051654;28;20029;-52
2024/03/18 06:50:45;;;;;;;17.52;9.35;;;11.80;99.90;;;;;;5050666;28;20037;-54
2024/03/18 06:53:10;;;;;;;21.20;10.02;;;11.80;99.90;;;;;;5052037;28;20428;-39
2024/03/18 06:55:36;;;;;;;23.70;10.43;;;11.80;99.90;;;;;;5052081;28;20021;-37
2024/03/18 06:58:05;;;;;;;19.13;10.30;;;11.80;99.90;;;;;;5051786;28;20541;-38
2024/03/18 07:00:32;;;;;;;25.80;10.32;;;11.80;99.90;;;;;;5052034;28;20445;-39
2024/03/18 07:02:58;;;;;;;26.80;10.77;;;11.80;99.90;;;;;;5051803;28;20017;-37
2024/03/18 07:05:24;;;;;;;24.95;10.30;;;11.80;99.90;;;;;;5051547;28;20032;-38
2024/03/18 07:07:51;;;;;;;30.20;12.98;;;11.80;99.90;;;;;;5051562;28;20482;-37
2024/03/18 07:10:17;;;;;;;25.85;11.07;;;11.90;99.90;;;;;;5051896;28;20469;-38
2024/03/18 07:12:44;;;;;;;27.88;11.05;;;11.90;99.90;;;;;;5051395;28;20394;-39
2024/03/18 07:15:16;;;;;;;26.17;11.57;;;11.80;99.90;;;;;;5052817;28;20029;-38
2024/03/18 07:17:43;;;;;;;22.08;9.70;;;11.80;99.90;;;;;;5055646;28;20055;-38
2024/03/18 07:20:10;;;;;;;32.33;11.80;;;11.90;99.90;;;;;;5055444;28;20424;-38
2024/03/18 07:22:37;;;;;;;21.00;10.63;;;11.90;99.90;;;;;;5055320;28;20025;-40
2024/03/18 07:25:04;;;;;;;27.50;11.77;;;11.90;99.90;;;;;;5055284;28;20500;-54
2024/03/18 07:27:31;;;;;;;26.03;11.40;;;12.00;99.90;;;;;;5055572;28;20025;-51
2024/03/18 07:29:57;;;;;;;24.15;10.00;;;12.00;99.90;;;;;;5055578;28;20367;-52
2024/03/18 07:32:24;;;;;;;21.38;10.38;;;12.00;99.90;;;;;;5055381;28;20032;-50
2024/03/18 07:34:51;;;;;;;22.73;11.30;;;12.10;99.90;;;;;;5055589;28;20036;-52
2024/03/18 07:37:17;;;;;;;24.42;11.38;;;12.10;99.90;;;;;;5055196;28;20025;-55
2024/03/18 07:39:45;;;;;;;19.35;10.65;;;12.10;99.90;;;;;;5054866;28;20492;-53
2024/03/18 07:42:11;;;;;;;21.67;10.25;;;12.10;99.90;;;;;;5054633;28;20052;-54
2024/03/18 07:44:40;;;;;;;20.10;10.13;;;12.10;99.90;;;;;;5055218;28;20017;-54
2024/03/18 07:47:06;;;;;;;19.13;8.90;;;12.10;99.90;;;;;;5054899;28;20504;-54
2024/03/18 07:49:36;;;;;;;22.60;9.45;;;12.10;99.90;;;;;;5054810;28;20021;-54
2024/03/18 07:52:04;;;;;;;30.55;11.23;;;12.10;99.90;;;;;;5055168;28;20527;-54
2024/03/18 07:54:33;;;;;;;26.63;10.32;;;12.10;99.90;;;;;;5054814;28;20484;-54
2024/03/18 07:56:59;;;;;;;24.15;10.88;;;12.20;99.90;;;;;;5054478;28;20021;-54
2024/03/18 07:59:25;;;;;;;39.33;12.00;;;12.20;99.90;;;;;;5054733;28;20070;-54
2024/03/18 08:01:51;;;;;;;26.63;11.05;;;12.20;99.90;;;;;;5054790;28;20121;-49
2024/03/18 08:04:18;;;;;;;33.75;11.93;;;12.20;99.90;;;;;;5054511;28;20025;-57
2024/03/18 08:06:46;;;;;;;23.85;11.23;;;12.20;99.90;;;;;;5054468;28;20021;-54
2024/03/18 08:09:17;;;;;;;28.50;11.65;;;12.30;99.90;;;;;;5054479;28;20151;-54
2024/03/18 08:11:44;;;;;;;29.23;11.55;;;12.30;99.90;;;;;;5054151;28;20049;-53
2024/03/18 08:14:09;;;;;;;34.95;11.80;;;12.40;99.90;;;;;;5054136;28;20032;-54
2024/03/18 08:16:36;;;;;;;27.52;13.00;;;12.40;99.90;;;;;;5054409;28;20392;-55
2024/03/18 08:19:03;;;;;;;36.13;12.20;;;12.40;99.90;;;;;;5054333;28;20025;-53
2024/03/18 08:21:29;;;;;;;18.83;8.47;;;12.40;99.90;;;;;;5052861;28;20124;-54
2024/03/18 08:23:55;;;;;;;32.88;12.85;;;12.40;99.90;;;;;;5054123;28;20103;-54
2024/03/18 08:26:21;;;;;;;35.20;12.27;;;12.50;99.90;;;;;;5053829;28;20053;-52
2024/03/18 08:28:46;;;;;;;38.15;12.45;;;12.60;99.90;;;;;;5054367;28;20426;-54
2024/03/18 08:31:12;;;;;;;26.83;11.63;;;12.80;99.90;;;;;;5046987;28;20029;-55
2024/03/18 08:33:38;;;;;;;34.80;13.43;;;12.90;99.90;;;;;;5034104;28;20030;-54
2024/03/18 08:36:04;;;;;;;34.80;13.35;;;13.10;99.90;;;;;;5033971;28;20064;-54
2024/03/18 08:38:30;;;;;;;35.47;13.90;;;13.10;99.90;;;;;;5034436;28;20045;-54
2024/03/18 08:40:56;;;;;;;38.63;14.57;;;13.10;99.90;;;;;;5033992;28;20028;-55
2024/03/18 08:43:22;;;;;;;31.67;13.43;;;13.10;99.90;;;;;;5034203;28;20530;-54
2024/03/18 08:45:55;;;;;;;32.72;13.18;;;13.30;99.90;;;;;;5033949;28;20378;-53
2024/03/18 08:48:21;;;;;;;36.10;13.57;;;13.30;99.90;;;;;;5050553;28;20032;-61
2024/03/18 08:50:47;;;;;;;34.97;12.40;;;13.20;99.90;;;;;;5052806;28;20549;-54
2024/03/18 08:53:14;;;;;;;48.03;12.70;;;13.20;99.90;;;;;;5052544;28;20498;-55
2024/03/18 08:55:40;;;;;;;29.77;12.60;;;13.20;99.90;;;;;;5053500;28;20032;-54
2024/03/18 08:58:06;;;;;;;39.17;13.77;;;13.40;99.90;;;;;;5052312;28;20292;-54
2024/03/18 09:00:33;;;;;;;29.65;13.27;;;13.50;99.90;;;;;;5053480;28;20028;-55
2024/03/18 09:02:58;;;;;;;35.05;12.85;;;13.80;99.90;;;;;;5053468;28;20591;-58
2024/03/18 09:05:24;;;;;;;33.17;11.60;;;14.00;99.90;;;;;;5053448;28;20056;-54
2024/03/18 09:07:49;;;;;;;35.00;11.40;;;14.10;99.90;;;;;;5052973;28;20383;-55
2024/03/18 09:10:15;;;;;;;29.17;12.38;;;14.10;99.90;;;;;;5053398;28;20028;-50
2024/03/18 09:12:41;;;;;;;34.25;11.15;;;14.10;99.90;;;;;;5052841;28;20041;-51
2024/03/18 09:15:08;;;;;;;30.77;11.50;;;14.00;99.90;;;;;;5052360;28;20033;-54
2024/03/18 09:17:34;;;;;;;27.85;11.43;;;13.70;99.90;;;;;;5049062;28;20563;-54
2024/03/18 09:20:00;;;;;;;29.95;11.77;;;13.70;99.90;;;;;;5051793;28;20056;-54
2024/03/18 09:22:25;;;;;;;30.60;11.02;;;13.70;99.90;;;;;;5052497;28;20048;-54
2024/03/18 09:24:51;;;;;;;25.33;9.60;;;13.90;99.90;;;;;;5052945;28;20067;-53
2024/03/18 09:27:17;;;;;;;28.73;10.43;;;14.10;99.90;;;;;;5053029;28;20024;-52
2024/03/18 09:29:43;;;;;;;30.48;10.93;;;14.30;99.90;;;;;;5052480;28;20024;-61
2024/03/18 09:32:09;;;;;;;24.00;10.20;;;14.40;99.90;;;;;;5053248;28;20017;-54
2024/03/18 09:34:35;;;;;;;24.33;8.55;;;14.60;99.90;;;;;;5053025;28;20503;-54
2024/03/18 09:37:01;;;;;;;19.35;7.38;;;14.40;99.90;;;;;;5053063;28;20062;-55
2024/03/18 09:39:26;;;;;;;23.77;7.50;;;14.50;99.90;;;;;;5052212;28;20143;-55
2024/03/18 09:41:53;;;;;;;18.52;6.90;;;14.60;99.90;;;;;;5051569;28;20017;-55
2024/03/18 09:44:20;;;;;;;18.80;6.20;;;14.60;99.90;;;;;;5052944;28;20488;-55
2024/03/18 09:46:47;;;;;;;18.50;7.60;;;14.40;99.90;;;;;;5051550;28;20028;-55
2024/03/18 09:49:20;;;;;;;23.02;7.32;;;14.20;99.90;;;;;;5052878;28;20013;-57
2024/03/18 09:51:47;;;;;;;14.20;6.38;;;14.10;99.90;;;;;;5052891;28;20397;-55
2024/03/18 09:54:19;;;;;;;24.88;6.72;;;14.10;99.90;;;;;;5052719;28;20110;-55
2024/03/18 09:56:48;;;;;;;24.63;7.68;;;14.10;99.90;;;;;;5052844;28;20025;-55
2024/03/18 09:59:14;;;;;;;20.40;5.55;;;14.20;99.90;;;;;;5052564;28;20016;-55
2024/03/18 10:01:40;;;;;;;12.57;5.03;;;14.40;99.90;;;;;;5052406;28;20367;-57
2024/03/18 10:04:05;;;;;;;17.13;4.40;;;14.50;99.90;;;;;;5052668;28;20079;-54
2024/03/18 10:06:33;;;;;;;9.32;3.60;;;14.50;99.90;;;;;;5052609;28;20058;-55
2024/03/18 10:08:59;;;;;;;;;;;14.50;99.90;;;;;;5052725;28;20025;-56
2024/03/18 10:11:25;;;;;;;18.05;3.70;;;14.50;99.90;;;;;;5052120;28;20004;-55
2024/03/18 10:13:50;;;;;;;15.82;3.30;;;14.50;99.90;;;;;;5051024;28;20021;-56
2024/03/18 10:16:16;;;;;;;16.95;4.00;;;14.60;99.90;;;;;;5052189;28;20032;-53
2024/03/18 10:18:42;;;;;;;10.85;3.53;;;14.90;99.90;;;;;;5052125;28;20021;-56
2024/03/18 10:21:10;;;;;;;10.68;3.88;;;15.00;99.90;;;;;;5052233;28;20055;-55
2024/03/18 10:23:36;;;;;;;8.77;2.80;;;15.20;99.90;;;;;;5052260;28;20386;-55
2024/03/18 10:26:02;;;;;;;10.45;2.63;;;15.30;99.90;;;;;;5052165;28;20021;-54
2024/03/18 10:28:28;;;;;;;10.35;2.45;;;15.30;99.90;;;;;;5052473;28;20025;-54
2024/03/18 10:30:56;;;;;;;9.52;1.77;;;15.40;99.90;;;;;;5052186;28;20406;-55
2024/03/18 10:33:24;;;;;;;14.75;2.85;;;15.50;99.90;;;;;;5052492;28;20029;-61
2024/03/18 10:35:51;;;;;;;6.70;1.80;;;15.30;99.90;;;;;;5052432;28;20025;-55
2024/03/18 10:38:23;;;;;;;12.05;1.77;;;14.80;99.90;;;;;;5052464;28;20500;-54
2024/03/18 10:40:54;;;;;;;14.27;2.10;;;14.70;99.90;;;;;;5051969;28;20032;-54
2024/03/18 10:43:35;;;;;;;14.68;2.67;;;14.70;99.90;;;;;;5051937;28;20032;-55
2024/03/18 10:46:02;;;;;;;6.43;1.50;;;14.80;99.90;;;;;;5050593;28;20036;-54
2024/03/18 10:48:28;;;;;;;7.53;1.52;;;14.70;99.90;;;;;;5051819;28;20029;-49
2024/03/18 10:50:55;;;;;;;6.22;2.00;;;14.80;99.90;;;;;;5053244;28;20486;-52
2024/03/18 10:53:26;;;;;;;5.78;1.35;;;14.80;99.90;;;;;;5054622;28;20075;-54
2024/03/18 10:55:53;;;;;;;13.82;2.03;;;14.90;99.90;;;;;;5055836;28;20021;-53
2024/03/18 10:58:25;;;;;;;6.85;1.30;;;14.90;99.90;;;;;;5055832;28;20017;-54
2024/03/18 11:00:52;;;;;;;10.95;1.40;;;15.10;99.90;;;;;;5054519;28;20025;-55
2024/03/18 11:03:22;;;;;;;6.53;1.60;;;15.20;99.90;;;;;;5055920;28;20027;-50
2024/03/18 11:05:53;;;;;;;7.25;2.17;;;15.20;99.90;;;;;;5055658;28;20029;-53
2024/03/18 11:08:20;;;;;;;5.50;1.23;;;15.30;99.90;;;;;;5055647;28;20039;-54
2024/03/18 11:10:48;;;;;;;6.55;1.27;;;15.10;99.90;;;;;;5054291;28;20103;-54
2024/03/18 11:13:18;;;;;;;10.13;1.02;;;15.20;99.90;;;;;;5055890;28;20549;-55
2024/03/18 11:15:46;;;;;;;8.13;1.67;;;15.00;99.90;;;;;;5055383;28;20032;-60
2024/03/18 11:18:20;;;;;;;11.07;1.30;;;15.10;99.90;;;;;;5055257;28;20021;-55
2024/03/18 11:20:51;;;;;;;5.70;1.45;;;15.10;99.90;;;;;;5055522;28;20491;-55
2024/03/18 11:23:21;;;;;;;12.88;1.92;;;15.30;99.90;;;;;;5055376;28;20063;-55
2024/03/18 11:26:07;;;;;;;9.00;1.67;;;15.40;99.90;;;;;;5055438;28;20032;-61
2024/03/18 11:28:43;;;;;;;3.75;0.93;;;15.60;99.90;;;;;;5055344;28;20025;-56
2024/03/18 11:31:19;;;;;;;3.42;1.00;;;15.90;99.90;;;;;;5053982;28;20477;-59
2024/03/18 11:33:44;;;;;;;6.63;1.00;;;16.00;99.90;;;;;;5055402;28;20025;-42
2024/03/18 11:36:18;;;;;;;8.88;1.15;;;16.10;99.90;;;;;;5055064;28;20075;-55
2024/03/18 11:38:43;;;;;;;3.88;0.80;;;16.10;99.90;;;;;;5055140;28;20389;-55
2024/03/18 11:41:09;;;;;;;9.48;1.30;;;16.20;99.90;;;;;;5055015;28;20021;-42
2024/03/18 11:43:36;;;;;;;2.78;0.70;;;16.20;99.90;;;;;;5055314;28;20188;-41
2024/03/18 11:46:05;;;;;;;2.70;1.00;;;16.20;99.90;;;;;;5054949;28;20056;-47
2024/03/18 11:48:31;;;;;;;2.70;0.70;;;16.10;99.90;;;;;;5054846;28;20394;-51
2024/03/18 11:50:57;;;;;;;3.30;0.90;;;16.20;99.90;;;;;;5055214;28;20385;-46
2024/03/18 11:53:24;;;;;;;3.35;1.00;;;16.20;99.90;;;;;;5054885;28;20056;-41
2024/03/18 11:55:53;;;;;;;6.00;0.98;;;16.30;99.90;;;;;;5054957;28;20466;-42
2024/03/18 11:58:19;;;;;;;11.77;1.55;;;16.40;99.90;;;;;;5055100;28;20490;-41
2024/03/18 12:00:50;;;;;;;2.40;0.88;;;16.40;99.90;;;;;;5054519;28;20241;-43
2024/03/18 12:03:16;;;;;;;3.70;0.68;;;16.40;99.90;;;;;;5054175;28;20021;-47
2024/03/18 12:05:44;;;;;;;4.80;0.85;;;16.50;99.90;;;;;;5054646;28;20036;-45
2024/03/18 12:08:22;;;;;;;4.07;0.90;;;16.40;99.90;;;;;;5054482;28;20025;-46
2024/03/18 12:10:54;;;;;;;2.75;1.00;;;16.10;99.90;;;;;;5054306;28;20447;-48
2024/03/18 12:13:24;;;;;;;4.40;0.70;;;16.00;99.90;;;;;;5054493;28;20021;-45
2024/03/18 12:15:50;;;;;;;4.90;1.15;;;16.00;99.90;;;;;;5054629;28;20047;-46
2024/03/18 12:18:16;;;;;;;3.53;0.75;;;15.80;99.90;;;;;;5054248;28;20032;-51
2024/03/18 12:20:42;;;;;;;5.68;1.33;;;15.60;99.90;;;;;;5054328;28;20343;-52
2024/03/18 12:23:16;;;;;;;4.95;1.92;;;15.70;99.90;;;;;;5054341;28;20527;-47
2024/03/18 12:28:35;;;;;;;8.55;1.13;;;15.80;99.90;;;;;;5054197;28;20508;-49
2024/03/18 12:31:01;;;;;;;4.82;0.80;;;16.10;99.90;;;;;;5054057;28;20128;-50
2024/03/18 12:33:33;;;;;;;5.32;1.17;;;16.30;99.90;;;;;;5054116;28;20025;-56